createdAt,value
2022-12-01T00:01:26.732Z,14.47
2022-12-01T00:03:54.575Z,13.80
2022-12-01T00:06:22.472Z,13.15
2022-12-01T00:09:12.979Z,13.05
2022-12-01T00:11:42.815Z,13.90
2022-12-01T00:14:10.376Z,15.70
2022-12-01T00:16:38.568Z,14.65
2022-12-01T00:19:06.142Z,15.85
2022-12-01T00:21:33.665Z,14.95
2022-12-01T00:24:01.233Z,13.70
2022-12-01T00:26:28.867Z,13.03
2022-12-01T00:28:59.865Z,13.20
2022-12-01T00:31:27.866Z,17.20
2022-12-01T00:33:55.632Z,15.93
2022-12-01T00:36:24.188Z,14.65
2022-12-01T00:38:53.704Z,14.30
2022-12-01T00:41:22.291Z,15.15
2022-12-01T00:43:51.243Z,15.90
2022-12-01T00:46:18.918Z,14.73
2022-12-01T00:48:46.587Z,13.90
2022-12-01T00:51:14.330Z,12.80
2022-12-01T00:53:42.548Z,14.52
2022-12-01T00:56:10.288Z,16.23
2022-12-01T00:58:37.926Z,13.95
2022-12-01T01:01:05.984Z,16.65
2022-12-01T01:03:34.623Z,16.00
2022-12-01T01:06:08.171Z,14.77
2022-12-01T01:08:36.263Z,19.27
2022-12-01T01:11:04.861Z,14.30
2022-12-01T01:13:33.348Z,18.35
2022-12-01T01:16:03.851Z,16.70
2022-12-01T01:18:32.296Z,16.27
2022-12-01T01:21:07.038Z,20.60
2022-12-01T01:23:34.996Z,16.73
2022-12-01T01:26:13.658Z,15.73
2022-12-01T01:28:41.787Z,15.97
2022-12-01T01:31:12.391Z,16.73
2022-12-01T01:33:40.346Z,17.30
2022-12-01T01:36:08.664Z,17.20
2022-12-01T01:38:37.272Z,16.27
2022-12-01T01:41:07.372Z,17.63
2022-12-01T01:43:39.316Z,16.35
2022-12-01T01:46:08.556Z,16.85
2022-12-01T01:48:38.610Z,19.55
2022-12-01T01:51:07.964Z,17.25
2022-12-01T01:53:35.951Z,20.33
2022-12-01T01:56:04.996Z,16.70
2022-12-01T01:58:33.655Z,17.63
2022-12-01T02:01:01.389Z,17.98
2022-12-01T02:03:30.187Z,17.92
2022-12-01T02:06:03.430Z,16.50
2022-12-01T02:08:35.779Z,17.52
2022-12-01T02:11:31.433Z,18.27
2022-12-01T02:14:16.169Z,17.85
2022-12-01T02:17:01.885Z,18.33
2022-12-01T02:20:09.414Z,18.57
2022-12-01T02:23:28.335Z,22.02
2022-12-01T02:26:20.481Z,16.38
2022-12-01T02:29:15.240Z,14.48
2022-12-01T02:32:16.469Z,18.15
2022-12-01T02:34:55.690Z,18.80
2022-12-01T02:37:27.069Z,16.77
2022-12-01T02:40:18.120Z,22.00
2022-12-01T02:43:05.878Z,16.02
2022-12-01T02:45:43.699Z,17.40
2022-12-01T02:48:39.324Z,19.17
2022-12-01T02:51:15.175Z,19.83
2022-12-01T02:53:43.247Z,20.65
2022-12-01T02:56:13.416Z,20.00
2022-12-01T02:58:41.916Z,20.35
2022-12-01T03:01:38.673Z,17.27
2022-12-01T03:04:32.937Z,21.55
2022-12-01T03:07:09.294Z,22.27
2022-12-01T03:10:04.123Z,21.60
2022-12-01T03:12:46.372Z,19.33
2022-12-01T03:15:45.293Z,25.83
2022-12-01T03:18:50.910Z,20.70
2022-12-01T03:21:30.980Z,20.38
2022-12-01T03:24:26.448Z,21.25
2022-12-01T03:26:57.431Z,18.05
2022-12-01T03:29:33.710Z,18.93
2022-12-01T03:32:08.407Z,20.33
2022-12-01T03:34:35.916Z,19.90
2022-12-01T03:37:10.637Z,22.33
2022-12-01T03:39:40.249Z,21.30
2022-12-01T03:42:39.140Z,22.47
2022-12-01T03:45:19.790Z,21.73
2022-12-01T03:47:47.376Z,23.85
2022-12-01T03:50:18.642Z,20.30
2022-12-01T03:53:11.358Z,19.30
2022-12-01T03:55:46.805Z,19.50
2022-12-01T03:58:23.011Z,19.27
2022-12-01T04:00:53.454Z,22.25
2022-12-01T04:03:24.870Z,19.25
2022-12-01T04:05:52.619Z,23.13
2022-12-01T04:08:20.693Z,20.23
2022-12-01T04:10:48.243Z,21.63
2022-12-01T04:13:25.679Z,19.63
2022-12-01T04:15:55.151Z,21.02
2022-12-01T04:18:22.772Z,17.60
2022-12-01T04:20:50.660Z,21.13
2022-12-01T04:23:36.679Z,17.35
2022-12-01T04:26:05.247Z,20.40
2022-12-01T04:28:32.930Z,19.40
2022-12-01T04:31:00.575Z,20.95
2022-12-01T04:33:29.565Z,20.10
2022-12-01T04:36:00.910Z,21.27
2022-12-01T04:38:30.742Z,19.13
2022-12-01T04:40:58.854Z,19.63
2022-12-01T04:43:26.515Z,19.25
2022-12-01T04:45:53.999Z,18.80
2022-12-01T04:48:21.488Z,16.27
2022-12-01T04:50:49.976Z,20.10
2022-12-01T04:53:17.538Z,20.13
2022-12-01T04:55:45.132Z,19.77
2022-12-01T04:58:13.071Z,20.93
2022-12-01T05:00:40.892Z,17.83
2022-12-01T05:03:13.543Z,18.25
2022-12-01T05:05:42.676Z,17.80
2022-12-01T05:08:10.736Z,23.10
2022-12-01T05:10:39.091Z,26.07
2022-12-01T05:13:06.692Z,20.60
2022-12-01T05:15:34.332Z,19.55
2022-12-01T05:18:01.934Z,20.02
2022-12-01T05:20:48.522Z,18.00
2022-12-01T05:23:17.144Z,21.40
2022-12-01T05:25:44.899Z,18.30
2022-12-01T05:28:12.651Z,19.70
2022-12-01T05:30:40.935Z,18.35
2022-12-01T05:33:08.534Z,17.65
2022-12-01T05:35:36.144Z,19.67
2022-12-01T05:38:07.811Z,20.60
2022-12-01T05:40:37.040Z,20.25
2022-12-01T05:43:04.952Z,17.80
2022-12-01T05:45:33.745Z,17.38
2022-12-01T05:48:02.241Z,17.80
2022-12-01T05:50:31.048Z,17.75
2022-12-01T05:52:58.606Z,17.98
2022-12-01T05:55:26.247Z,18.58
2022-12-01T05:57:53.800Z,17.95
2022-12-01T06:00:21.456Z,17.00
2022-12-01T06:02:49.168Z,16.92
2022-12-01T06:05:16.967Z,18.85
2022-12-01T06:07:44.570Z,17.02
2022-12-01T06:10:12.897Z,17.05
2022-12-01T06:12:40.462Z,17.97
2022-12-01T06:15:08.631Z,19.70
2022-12-01T06:17:40.227Z,18.00
2022-12-01T06:20:09.284Z,17.50
2022-12-01T06:22:36.927Z,16.70
2022-12-01T06:25:04.837Z,18.27
2022-12-01T06:27:32.554Z,19.05
2022-12-01T06:30:00.196Z,18.77
2022-12-01T06:32:27.684Z,17.95
2022-12-01T06:34:55.238Z,17.88
2022-12-01T06:37:22.831Z,14.83
2022-12-01T06:39:50.819Z,15.52
2022-12-01T06:42:18.633Z,17.27
2022-12-01T06:44:46.418Z,16.08
2022-12-01T06:47:15.570Z,19.02
2022-12-01T06:49:43.248Z,18.10
2022-12-01T06:52:10.819Z,19.13
2022-12-01T06:54:39.702Z,17.40
2022-12-01T06:57:07.614Z,15.48
2022-12-01T06:59:35.351Z,18.08
2022-12-01T07:02:03.295Z,16.80
2022-12-01T07:04:31.203Z,16.00
2022-12-01T07:06:58.997Z,17.25
2022-12-01T07:09:26.526Z,15.90
2022-12-01T07:11:54.098Z,19.70
2022-12-01T07:14:26.810Z,16.57
2022-12-01T07:16:54.716Z,17.40
2022-12-01T07:19:22.352Z,15.43
2022-12-01T07:21:50.366Z,16.65
2022-12-01T07:24:18.140Z,17.58
2022-12-01T07:26:45.734Z,17.03
2022-12-01T07:29:13.359Z,18.00
2022-12-01T07:31:41.007Z,15.77
2022-12-01T07:34:12.937Z,15.88
2022-12-01T07:36:40.545Z,19.90
2022-12-01T07:39:08.770Z,16.93
2022-12-01T07:41:36.467Z,16.30
2022-12-01T07:44:04.217Z,17.83
2022-12-01T07:46:32.078Z,16.70
2022-12-01T07:49:00.481Z,16.88
2022-12-01T07:51:29.150Z,15.13
2022-12-01T07:53:56.745Z,15.45
2022-12-01T07:56:24.412Z,15.75
2022-12-01T07:58:52.152Z,15.93
2022-12-01T08:01:22.791Z,16.05
2022-12-01T08:03:52.353Z,13.57
2022-12-01T08:06:20.638Z,15.23
2022-12-01T08:08:49.243Z,15.38
2022-12-01T08:11:20.149Z,14.55
2022-12-01T08:13:47.828Z,14.90
2022-12-01T08:16:17.810Z,16.40
2022-12-01T08:18:46.034Z,15.02
2022-12-01T08:21:15.931Z,14.82
2022-12-01T08:23:44.290Z,14.60
2022-12-01T08:26:17.239Z,16.15
2022-12-01T08:28:46.280Z,17.13
2022-12-01T08:31:19.119Z,18.08
2022-12-01T08:33:48.459Z,19.13
2022-12-01T08:36:16.731Z,17.60
2022-12-01T08:38:45.573Z,13.73
2022-12-01T08:41:14.239Z,15.83
2022-12-01T08:44:00.448Z,14.75
2022-12-01T08:46:32.786Z,13.80
2022-12-01T08:49:01.409Z,14.48
2022-12-01T08:51:29.220Z,14.70
2022-12-01T08:53:58.202Z,15.23
2022-12-01T08:56:32.674Z,15.13
2022-12-01T08:59:00.862Z,15.40
2022-12-01T09:01:29.299Z,14.50
2022-12-01T09:04:10.716Z,16.33
2022-12-01T09:06:43.560Z,17.63
2022-12-01T09:09:14.616Z,14.90
2022-12-01T09:11:46.254Z,17.20
2022-12-01T09:14:16.238Z,14.23
2022-12-01T09:16:46.550Z,14.55
2022-12-01T09:19:22.143Z,13.83
2022-12-01T09:21:51.695Z,11.82
2022-12-01T09:24:19.602Z,12.98
2022-12-01T09:26:47.461Z,15.10
2022-12-01T09:29:16.728Z,13.70
2022-12-01T09:31:45.017Z,14.67
2022-12-01T09:34:15.852Z,13.45
2022-12-01T09:36:44.441Z,15.00
2022-12-01T09:39:14.989Z,13.90
2022-12-01T09:41:54.587Z,14.40
2022-12-01T09:44:39.433Z,13.13
2022-12-01T09:47:26.605Z,14.95
2022-12-01T09:50:03.318Z,16.40
2022-12-01T09:52:42.201Z,12.75
2022-12-01T09:55:15.523Z,14.93
2022-12-01T09:57:46.830Z,13.43
2022-12-01T10:00:21.222Z,13.90
2022-12-01T10:02:56.234Z,13.50
2022-12-01T10:05:29.220Z,13.82
2022-12-01T10:08:02.367Z,18.42
2022-12-01T10:11:05.891Z,12.97
2022-12-01T10:13:34.221Z,15.88
2022-12-01T10:16:11.364Z,13.82
2022-12-01T10:18:56.256Z,14.63
2022-12-01T10:21:40.869Z,13.18
2022-12-01T10:24:14.461Z,13.13
2022-12-01T10:27:21.876Z,12.63
2022-12-01T10:29:54.802Z,11.95
2022-12-01T10:32:38.124Z,11.93
2022-12-01T10:35:07.101Z,12.00
2022-12-01T10:37:34.877Z,12.17
2022-12-01T10:40:02.737Z,19.13
2022-12-01T10:42:50.705Z,16.90
2022-12-01T10:45:27.287Z,18.63
2022-12-01T10:48:10.364Z,15.07
2022-12-01T10:50:38.164Z,14.70
2022-12-01T10:53:05.798Z,15.75
2022-12-01T10:55:43.437Z,24.92
2022-12-01T10:58:17.455Z,12.02
2022-12-01T11:01:00.591Z,14.55
2022-12-01T11:03:31.904Z,15.47
2022-12-01T11:06:03.404Z,13.27
2022-12-01T11:08:52.601Z,15.05
2022-12-01T11:11:23.828Z,15.52
2022-12-01T11:13:51.735Z,11.80
2022-12-01T11:16:41.553Z,12.70
2022-12-01T11:19:27.363Z,13.48
2022-12-01T11:21:58.464Z,17.15
2022-12-01T11:24:33.782Z,18.45
2022-12-01T11:27:01.961Z,21.33
2022-12-01T11:29:39.672Z,22.30
2022-12-01T11:32:29.594Z,13.77
2022-12-01T11:35:14.960Z,14.52
2022-12-01T11:38:27.930Z,19.67
2022-12-01T11:40:51.712Z,14.70
2022-12-01T11:43:41.543Z,16.03
2022-12-01T11:46:11.610Z,13.98
2022-12-01T11:48:39.288Z,12.80
2022-12-01T11:51:09.481Z,13.85
2022-12-01T11:53:42.687Z,14.70
2022-12-01T11:56:31.581Z,14.40
2022-12-01T11:59:02.679Z,11.75
2022-12-01T12:01:45.344Z,13.15
2022-12-01T12:04:37.376Z,16.17
2022-12-01T12:07:35.061Z,13.00
2022-12-01T12:10:24.514Z,13.33
2022-12-01T12:13:13.443Z,13.82
2022-12-01T12:15:50.142Z,14.38
2022-12-01T12:18:27.282Z,13.38
2022-12-01T12:20:57.880Z,16.05
2022-12-01T12:23:57.386Z,11.67
2022-12-01T12:26:57.775Z,11.50
2022-12-01T12:29:52.231Z,13.25
2022-12-01T12:32:25.639Z,12.13
2022-12-01T12:35:17.234Z,13.25
2022-12-01T12:37:44.855Z,13.67
2022-12-01T12:40:30.326Z,13.93
2022-12-01T12:43:22.695Z,11.63
2022-12-01T12:46:11.433Z,14.25
2022-12-01T12:49:12.154Z,15.38
2022-12-01T12:52:02.602Z,16.93
2022-12-01T12:54:47.975Z,15.13
2022-12-01T12:57:25.825Z,13.52
2022-12-01T12:59:58.002Z,18.75
2022-12-01T13:02:44.520Z,17.98
2022-12-01T13:05:25.854Z,13.40
2022-12-01T13:08:16.848Z,15.68
2022-12-01T13:10:58.174Z,16.48
2022-12-01T13:13:46.316Z,12.73
2022-12-01T13:16:19.710Z,14.10
2022-12-01T13:18:53.755Z,18.10
2022-12-01T13:21:22.882Z,15.63
2022-12-01T13:23:52.905Z,12.57
2022-12-01T13:26:22.605Z,14.57
2022-12-01T13:28:53.858Z,18.90
2022-12-01T13:31:23.009Z,16.37
2022-12-01T13:34:01.917Z,13.07
2022-12-01T13:36:47.656Z,16.73
2022-12-01T13:39:28.071Z,18.45
2022-12-01T13:42:17.073Z,69.70
2022-12-01T13:44:53.017Z,86.37
2022-12-01T13:47:20.671Z,21.63
2022-12-01T13:49:50.823Z,24.38
2022-12-01T13:52:21.669Z,20.30
2022-12-01T13:55:12.091Z,17.30
2022-12-01T13:57:50.464Z,17.00
2022-12-01T14:00:24.217Z,17.33
2022-12-01T14:03:10.817Z,15.50
2022-12-01T14:06:09.015Z,19.15
2022-12-01T14:08:46.297Z,20.20
2022-12-01T14:11:22.006Z,18.03
2022-12-01T14:13:49.591Z,18.13
2022-12-01T14:16:17.441Z,27.23
2022-12-01T14:18:56.886Z,16.75
2022-12-01T14:21:47.046Z,19.48
2022-12-01T14:24:34.374Z,16.53
2022-12-01T14:27:03.549Z,19.08
2022-12-01T14:29:38.544Z,18.38
2022-12-01T14:32:09.204Z,19.40
2022-12-01T14:34:38.224Z,19.02
2022-12-01T14:37:16.825Z,15.43
2022-12-01T14:39:56.407Z,16.38
2022-12-01T14:43:03.790Z,17.05
2022-12-01T14:45:39.365Z,22.10
2022-12-01T14:48:25.165Z,15.70
2022-12-01T14:51:09.799Z,24.53
2022-12-01T14:53:44.571Z,17.80
2022-12-01T14:56:16.736Z,18.25
2022-12-01T14:59:01.619Z,19.85
2022-12-01T15:01:34.123Z,15.98
2022-12-01T15:04:04.738Z,15.50
2022-12-01T15:06:34.761Z,14.35
2022-12-01T15:09:33.333Z,17.65
2022-12-01T15:12:06.966Z,19.20
2022-12-01T15:14:46.637Z,20.70
2022-12-01T15:17:31.379Z,18.80
2022-12-01T15:19:59.386Z,21.00
2022-12-01T15:22:31.808Z,18.10
2022-12-01T15:25:29.029Z,18.58
2022-12-01T15:28:12.071Z,23.77
2022-12-01T15:30:41.733Z,17.87
2022-12-01T15:33:28.411Z,17.40
2022-12-01T15:36:00.442Z,18.58
2022-12-01T15:38:37.384Z,18.42
2022-12-01T15:44:03.609Z,16.53
2022-12-01T15:46:34.497Z,13.57
2022-12-01T15:49:16.484Z,17.00
2022-12-01T15:51:44.770Z,15.68
2022-12-01T15:54:26.458Z,17.30
2022-12-01T15:56:56.218Z,17.53
2022-12-01T15:59:49.297Z,19.42
2022-12-01T16:02:20.217Z,17.17
2022-12-01T16:04:49.664Z,16.65
2022-12-01T16:07:17.589Z,14.70
2022-12-01T16:09:58.916Z,15.33
2022-12-01T16:12:33.058Z,16.73
2022-12-01T16:15:00.592Z,15.20
2022-12-01T16:17:40.473Z,13.43
2022-12-01T16:20:31.725Z,15.60
2022-12-01T16:23:02.909Z,13.57
2022-12-01T16:25:48.844Z,18.50
2022-12-01T16:28:36.447Z,16.73
2022-12-01T16:31:06.051Z,17.33
2022-12-01T16:33:39.184Z,16.33
2022-12-01T16:36:07.193Z,18.40
2022-12-01T16:38:34.958Z,16.98
2022-12-01T16:41:15.895Z,16.38
2022-12-01T16:44:05.497Z,11.88
2022-12-01T16:46:32.089Z,15.48
2022-12-01T16:48:59.780Z,12.87
2022-12-01T16:51:35.624Z,15.15
2022-12-01T16:54:10.497Z,13.88
2022-12-01T16:56:38.109Z,12.35
2022-12-01T16:59:05.871Z,15.27
2022-12-01T17:01:33.566Z,15.17
2022-12-01T17:04:06.030Z,16.70
2022-12-01T17:06:36.186Z,13.80
2022-12-01T17:09:03.895Z,16.85
2022-12-01T17:11:32.671Z,17.33
2022-12-01T17:14:00.309Z,13.70
2022-12-01T17:16:28.143Z,13.63
2022-12-01T17:18:55.941Z,14.10
2022-12-01T17:21:23.534Z,14.43
2022-12-01T17:23:51.150Z,13.10
2022-12-01T17:26:20.588Z,16.57
2022-12-01T17:28:48.646Z,16.02
2022-12-01T17:31:16.770Z,17.98
2022-12-01T17:33:44.468Z,16.67
2022-12-01T17:36:13.917Z,13.90
2022-12-01T17:38:46.140Z,17.43
2022-12-01T17:41:16.951Z,14.70
2022-12-01T17:43:44.830Z,16.02
2022-12-01T17:46:13.227Z,16.23
2022-12-01T17:48:43.682Z,15.20
2022-12-01T17:51:13.532Z,14.17
2022-12-01T17:53:41.468Z,16.30
2022-12-01T17:56:10.719Z,18.85
2022-12-01T17:58:38.736Z,16.08
2022-12-01T18:01:12.559Z,20.67
2022-12-01T18:03:41.415Z,19.13
2022-12-01T18:06:09.368Z,19.70
2022-12-01T18:08:37.916Z,16.08
2022-12-01T18:11:10.054Z,13.55
2022-12-01T18:13:39.437Z,13.68
2022-12-01T18:16:15.700Z,13.53
2022-12-01T18:18:43.736Z,13.05
2022-12-01T18:21:16.836Z,13.68
2022-12-01T18:23:51.334Z,13.73
2022-12-01T18:26:21.944Z,16.23
2022-12-01T18:28:58.132Z,14.33
2022-12-01T18:31:26.685Z,13.68
2022-12-01T18:33:54.265Z,10.98
2022-12-01T18:36:24.403Z,13.05
2022-12-01T18:38:53.574Z,12.75
2022-12-01T18:41:21.245Z,14.73
2022-12-01T18:43:49.382Z,17.23
2022-12-01T18:46:18.968Z,13.45
2022-12-01T18:48:48.780Z,13.77
2022-12-01T18:51:16.346Z,11.55
2022-12-01T18:53:45.545Z,14.70
2022-12-01T18:56:15.426Z,11.50
2022-12-01T18:58:43.231Z,12.20
2022-12-01T19:01:25.557Z,13.65
2022-12-01T19:03:55.506Z,12.73
2022-12-01T19:06:23.885Z,14.27
2022-12-01T19:08:52.809Z,13.77
2022-12-01T19:11:21.007Z,13.93
2022-12-01T19:13:48.772Z,17.95
2022-12-01T19:16:18.007Z,11.43
2022-12-01T19:18:46.312Z,12.03
2022-12-01T19:21:16.886Z,14.23
2022-12-01T19:23:46.433Z,14.27
2022-12-01T19:26:17.057Z,12.57
2022-12-01T19:28:45.859Z,10.60
2022-12-01T19:31:17.776Z,11.27
2022-12-01T19:33:46.094Z,15.52
2022-12-01T19:36:20.086Z,13.02
2022-12-01T19:38:48.776Z,12.43
2022-12-01T19:41:16.947Z,14.00
2022-12-01T19:43:44.679Z,11.53
2022-12-01T19:46:15.740Z,13.30
2022-12-01T19:48:45.629Z,11.40
2022-12-01T19:51:22.318Z,11.63
2022-12-01T19:53:50.827Z,9.73
2022-12-01T19:56:18.527Z,12.07
2022-12-01T19:58:46.417Z,11.57
2022-12-01T20:01:16.208Z,12.73
2022-12-01T20:03:49.326Z,11.38
2022-12-01T20:06:20.161Z,10.98
2022-12-01T20:08:47.846Z,12.40
2022-12-01T20:11:15.895Z,14.00
2022-12-01T20:13:45.618Z,13.40
2022-12-01T20:16:22.947Z,14.02
2022-12-01T20:18:51.762Z,15.30
2022-12-01T20:21:25.719Z,12.27
2022-12-01T20:24:01.369Z,13.13
2022-12-01T20:26:42.490Z,13.43
2022-12-01T20:29:20.846Z,15.07
2022-12-01T20:31:50.223Z,16.42
2022-12-01T20:34:27.315Z,18.40
2022-12-01T20:36:56.898Z,17.98
2022-12-01T20:39:24.855Z,15.95
2022-12-01T20:41:52.839Z,15.55
2022-12-01T20:44:21.533Z,18.85
2022-12-01T20:46:49.541Z,14.60
2022-12-01T20:49:18.536Z,17.30
2022-12-01T20:51:47.588Z,13.93
2022-12-01T20:54:27.878Z,13.82
2022-12-01T20:56:55.913Z,13.95
2022-12-01T20:59:23.520Z,14.53
2022-12-01T21:01:51.170Z,15.52
2022-12-01T21:04:18.845Z,14.90
2022-12-01T21:06:47.380Z,15.00
2022-12-01T21:09:15.111Z,15.15
2022-12-01T21:12:07.003Z,15.77
2022-12-01T21:14:37.839Z,13.52
2022-12-01T21:17:32.115Z,13.65
2022-12-01T21:20:21.452Z,13.00
2022-12-01T21:22:51.253Z,13.18
2022-12-01T21:25:22.392Z,14.40
2022-12-01T21:27:50.414Z,12.95
2022-12-01T21:30:21.097Z,12.70
2022-12-01T21:32:49.674Z,13.75
2022-12-01T21:35:22.808Z,13.52
2022-12-01T21:37:58.278Z,15.10
2022-12-01T21:40:27.149Z,12.98
2022-12-01T21:42:56.533Z,14.10
2022-12-01T21:45:29.923Z,17.58
2022-12-01T21:48:13.051Z,16.00
2022-12-01T21:50:40.704Z,13.23
2022-12-01T21:53:16.253Z,16.77
2022-12-01T21:55:46.349Z,16.90
2022-12-01T21:58:36.390Z,15.43
2022-12-01T22:01:16.875Z,16.55
2022-12-01T22:03:46.084Z,15.07
2022-12-01T22:06:30.846Z,17.40
2022-12-01T22:09:02.475Z,15.75
2022-12-01T22:11:31.233Z,16.65
2022-12-01T22:14:22.057Z,15.73
2022-12-01T22:16:59.825Z,13.07
2022-12-01T22:19:33.431Z,14.27
2022-12-01T22:22:15.728Z,14.40
2022-12-01T22:24:44.688Z,17.00
2022-12-01T22:27:37.211Z,11.45
2022-12-01T22:30:08.037Z,12.87
2022-12-01T22:32:40.473Z,11.00
2022-12-01T22:35:07.997Z,10.30
2022-12-01T22:37:46.707Z,13.15
2022-12-01T22:40:32.740Z,10.80
2022-12-01T22:43:18.383Z,13.63
2022-12-01T22:46:00.683Z,12.20
2022-12-01T22:48:28.255Z,11.10
2022-12-01T22:51:21.632Z,12.55
2022-12-01T22:53:50.031Z,10.93
2022-12-01T22:56:17.492Z,11.57
2022-12-01T22:58:45.048Z,10.07
2022-12-01T23:01:28.592Z,10.50
2022-12-01T23:04:15.256Z,8.93
2022-12-01T23:06:55.001Z,10.23
2022-12-01T23:09:26.545Z,12.87
2022-12-01T23:12:00.105Z,9.93
2022-12-01T23:14:28.422Z,9.85
2022-12-01T23:17:05.570Z,7.93
2022-12-01T23:19:34.723Z,9.65
2022-12-01T23:22:02.555Z,8.77
2022-12-01T23:24:33.896Z,8.52
2022-12-01T23:27:02.198Z,9.48
2022-12-01T23:29:30.475Z,10.10
2022-12-01T23:31:58.134Z,8.50
2022-12-01T23:34:25.793Z,9.37
2022-12-01T23:36:53.564Z,7.97
2022-12-01T23:39:30.252Z,9.57
2022-12-01T23:41:57.868Z,7.50
2022-12-01T23:44:40.932Z,8.27
2022-12-01T23:47:34.682Z,7.60
2022-12-01T23:50:04.428Z,7.22
2022-12-01T23:52:35.538Z,8.45
2022-12-01T23:55:14.581Z,7.60
2022-12-01T23:57:43.055Z,6.28
